Time;durP1;ratioP1;P1;durP2;ratioP2;P2;SDS_P1;SDS_P2;PMS_P1;PMS_P2;Temp;Humidity;BMP_temperature;BMP_pressure;BME280_temperature;BME280_humidity;BME280_pressure;Samples;Min_cycle;Max_cycle;Signal;HPM_P1;HPM_P2
2022/09/02 00:00:27;;;;;;;;;;;;;;;;;;2195873;67;1273;-53
2022/09/02 00:03:00;;;;;;;;;;;;;;;;;;2195292;59;1287;-52
2022/09/02 00:05:33;;;;;;;;;;;;;;;;;;2195753;67;1228;-53
2022/09/02 00:08:07;;;;;;;;;;;;;;;;;;2195739;67;1190;-53
2022/09/02 00:10:45;;;;;;;;;;;;;;;;;;2195727;59;1991;-53
2022/09/02 00:13:18;;;;;;;;;;;;;;;;;;2195535;67;1267;-53
2022/09/02 00:15:52;;;;;;;;;;;;;;;;;;2195482;67;1233;-54
2022/09/02 00:18:26;;;;;;;;;;;;;;;;;;2195705;67;1200;-53
2022/09/02 00:20:59;;;;;;;;;;;;;;;;;;2195309;67;1249;-53
2022/09/02 00:23:32;;;;;;;;;;;;;;;;;;2195679;67;1196;-53
2022/09/02 00:26:08;;;;;;;;;;;;;;;;;;2195434;59;1601;-53
2022/09/02 00:28:42;;;;;;;;;;;;;;;;;;2195151;67;1448;-53
2022/09/02 00:31:16;;;;;;;;;;;;;;;;;;2194798;67;2026;-53
2022/09/02 00:33:50;;;;;;;;;;;;;;;;;;2195725;67;1156;-53
2022/09/02 00:36:23;;;;;;;;;;;;;;;;;;2195312;59;1288;-53
2022/09/02 00:38:56;;;;;;;;;;;;;;;;;;2195606;67;1247;-53
2022/09/02 00:41:33;;;;;;;;;;;;;;;;;;2195876;59;1274;-53
2022/09/02 00:44:09;;;;;;;;;;;;;;;;;;2195975;67;1135;-53
2022/09/02 00:46:42;;;;;;;;;;;;;;;;;;2195232;67;1212;-52
2022/09/02 00:49:17;;;;;;;;;;;;;;;;;;2195394;67;1224;-53
2022/09/02 00:51:53;;;;;;;;;;;;;;;;;;2195623;67;1944;-53
2022/09/02 00:54:27;;;;;;;;;;;;;;;;;;2195896;67;1251;-52
2022/09/02 00:57:07;;;;;;;;;;;;;;;;;;2195157;67;1275;-53
2022/09/02 00:59:45;;;;;;;;;;;;;;;;;;2195133;67;1093;-53
2022/09/02 01:02:22;;;;;;;;;;;;;;;;;;2194901;67;1133;-53
2022/09/02 01:04:57;;;;;;;;;;;;;;;;;;2195586;59;1327;-54
2022/09/02 01:07:32;;;;;;;;;;;;;;;;;;2203524;67;1907;-55
2022/09/02 01:10:07;;;;;;;;;;;;;;;;;;2195745;67;1932;-52
2022/09/02 01:12:43;;;;;;;;;;;;;;;;;;2195957;59;1100;-54
2022/09/02 01:15:17;;;;;;;;;;;;;;;;;;2195840;67;1208;-53
2022/09/02 01:17:51;;;;;;;;;;;;;;;;;;2195803;67;1263;-53
2022/09/02 01:20:25;;;;;;;;;;;;;;;;;;2195969;67;1205;-53
2022/09/02 01:23:01;;;;;;;;;;;;;;;;;;2195340;67;1232;-53
2022/09/02 01:25:35;;;;;;;;;;;;;;;;;;2195669;67;1211;-53
2022/09/02 01:28:10;;;;;;;;;;;;;;;;;;2195271;59;1570;-51
2022/09/02 01:30:47;;;;;;;;;;;;;;;;;;2195283;67;1983;-53
2022/09/02 01:33:21;;;;;;;;;;;;;;;;;;2195523;67;1171;-53
2022/09/02 01:35:54;;;;;;;;;;;;;;;;;;2195098;67;1347;-53
2022/09/02 01:38:30;;;;;;;;;;;;;;;;;;2195617;67;1227;-53
2022/09/02 01:41:03;;;;;;;;;;;;;;;;;;2195595;59;1246;-53
2022/09/02 01:43:37;;;;;;;;;;;;;;;;;;2195480;67;1037;-52
2022/09/02 01:46:10;;;;;;;;;;;;;;;;;;2195476;67;1287;-53
2022/09/02 01:48:43;;;;;;;;;;;;;;;;;;2195260;67;1022;-53
2022/09/02 01:51:18;;;;;;;;;;;;;;;;;;2194894;67;1918;-53
2022/09/02 01:53:54;;;;;;;;;;;;;;;;;;2195378;67;1176;-53
2022/09/02 01:56:27;;;;;;;;;;;;;;;;;;2195395;67;1251;-53
2022/09/02 01:59:01;;;;;;;;;;;;;;;;;;2195197;67;1361;-53
2022/09/02 02:01:34;;;;;;;;;;;;;;;;;;2195275;67;1146;-53
2022/09/02 02:04:07;;;;;;;;;;;;;;;;;;2194927;59;1342;-53
2022/09/02 02:06:41;;;;;;;;;;;;;;;;;;2194963;67;1168;-53
2022/09/02 02:09:18;;;;;;;;;;;;;;;;;;2194865;67;1176;-52
2022/09/02 02:11:51;;;;;;;;;;;;;;;;;;2194937;67;2032;-52
2022/09/02 02:14:24;;;;;;;;;;;;;;;;;;2195519;67;1223;-53
2022/09/02 02:16:57;;;;;;;;;;;;;;;;;;2195025;67;1310;-53
2022/09/02 02:19:30;;;;;;;;;;;;;;;;;;2195302;67;1026;-52
2022/09/02 02:22:04;;;;;;;;;;;;;;;;;;2195498;67;1143;-53
2022/09/02 02:24:40;;;;;;;;;;;;;;;;;;2195486;67;1045;-52
2022/09/02 02:27:13;;;;;;;;;;;;;;;;;;2195786;59;1624;-52
2022/09/02 02:29:46;;;;;;;;;;;;;;;;;;2205380;67;1841;-52
2022/09/02 02:32:20;;;;;;;;;;;;;;;;;;2195684;67;1978;-53
2022/09/02 02:34:53;;;;;;;;;;;;;;;;;;2203476;67;1281;-52
2022/09/02 02:37:27;;;;;;;;;;;;;;;;;;2196148;59;1272;-51
2022/09/02 02:40:03;;;;;;;;;;;;;;;;;;2195541;67;1700;-52
2022/09/02 02:42:36;;;;;;;;;;;;;;;;;;2196390;59;1173;-53
2022/09/02 02:45:11;;;;;;;;;;;;;;;;;;2195906;67;1022;-53
2022/09/02 02:47:45;;;;;;;;;;;;;;;;;;2195586;67;1231;-53
2022/09/02 02:50:20;;;;;;;;;;;;;;;;;;2195259;67;1164;-53
2022/09/02 02:52:55;;;;;;;;;;;;;;;;;;2195394;67;1991;-52
2022/09/02 02:55:31;;;;;;;;;;;;;;;;;;2195923;67;1291;-54
2022/09/02 02:58:04;;;;;;;;;;;;;;;;;;2195618;67;1223;-54
2022/09/02 03:00:37;;;;;;;;;;;;;;;;;;2195173;67;1253;-52
2022/09/02 03:03:12;;;;;;;;;;;;;;;;;;2194911;59;2425;-53
2022/09/02 03:05:45;;;;;;;;;;;;;;;;;;2195302;59;1225;-53
2022/09/02 03:08:19;;;;;;;;;;;;;;;;;;2195629;59;1237;-52
2022/09/02 03:10:56;;;;;;;;;;;;;;;;;;2195265;67;1972;-53
2022/09/02 03:13:29;;;;;;;;;;;;;;;;;;2195627;59;1574;-53
2022/09/02 03:16:03;;;;;;;;;;;;;;;;;;2195152;67;1213;-53
2022/09/02 03:18:36;;;;;;;;;;;;;;;;;;2195493;67;1158;-53
2022/09/02 03:21:11;;;;;;;;;;;;;;;;;;2195541;59;1156;-53
2022/09/02 03:23:44;;;;;;;;;;;;;;;;;;2195498;67;1066;-52
2022/09/02 03:26:22;;;;;;;;;;;;;;;;;;2195422;59;1613;-53
2022/09/02 03:28:56;;;;;;;;;;;;;;;;;;2195334;59;1292;-51
2022/09/02 03:31:29;;;;;;;;;;;;;;;;;;2196130;59;1920;-53
2022/09/02 03:34:03;;;;;;;;;;;;;;;;;;2195746;67;1299;-53
2022/09/02 03:36:37;;;;;;;;;;;;;;;;;;2196111;59;1255;-52
2022/09/02 03:39:10;;;;;;;;;;;;;;;;;;2196184;67;1178;-52
2022/09/02 03:41:47;;;;;;;;;;;;;;;;;;2196228;67;1099;-53
2022/09/02 03:44:20;;;;;;;;;;;;;;;;;;2196413;67;1099;-53
2022/09/02 03:46:54;;;;;;;;;;;;;;;;;;2196441;67;1273;-53
2022/09/02 03:49:28;;;;;;;;;;;;;;;;;;2196825;67;1109;-53
2022/09/02 03:52:01;;;;;;;;;;;;;;;;;;2196087;67;1939;-53
2022/09/02 03:54:34;;;;;;;;;;;;;;;;;;2196765;67;1040;-53
2022/09/02 03:57:10;;;;;;;;;;;;;;;;;;2195788;67;1213;-53
2022/09/02 03:59:43;;;;;;;;;;;;;;;;;;2196321;67;1162;-53
2022/09/02 04:02:16;;;;;;;;;;;;;;;;;;2196541;67;1143;-53
2022/09/02 04:04:50;;;;;;;;;;;;;;;;;;2196410;59;1155;-53
2022/09/02 04:07:23;;;;;;;;;;;;;;;;;;2195968;67;1190;-55
2022/09/02 04:09:58;;;;;;;;;;;;;;;;;;2196192;67;1359;-51
2022/09/02 04:12:34;;;;;;;;;;;;;;;;;;2197113;59;1981;-52
2022/09/02 04:15:08;;;;;;;;;;;;;;;;;;2196830;67;1137;-53
2022/09/02 04:17:42;;;;;;;;;;;;;;;;;;2196620;67;1200;-53
2022/09/02 04:20:16;;;;;;;;;;;;;;;;;;2196913;67;1242;-52
2022/09/02 04:22:49;;;;;;;;;;;;;;;;;;2196814;67;1207;-53
2022/09/02 04:25:22;;;;;;;;;;;;;;;;;;2196916;67;1259;-51
2022/09/02 04:27:58;;;;;;;;;;;;;;;;;;2196688;59;1599;-54
2022/09/02 04:30:31;;;;;;;;;;;;;;;;;;2196553;67;1204;-53
2022/09/02 04:33:05;;;;;;;;;;;;;;;;;;2196040;67;1992;-53
2022/09/02 04:35:41;;;;;;;;;;;;;;;;;;2196618;59;1298;-53
2022/09/02 04:38:15;;;;;;;;;;;;;;;;;;2196130;67;1109;-52
2022/09/02 04:40:48;;;;;;;;;;;;;;;;;;2196623;67;1283;-53
2022/09/02 04:43:24;;;;;;;;;;;;;;;;;;2196573;67;1085;-52
2022/09/02 04:45:57;;;;;;;;;;;;;;;;;;2196198;67;1268;-53
2022/09/02 04:48:31;;;;;;;;;;;;;;;;;;2196484;67;1184;-52
2022/09/02 04:51:08;;;;;;;;;;;;;;;;;;2195738;67;1069;-52
2022/09/02 04:53:42;;;;;;;;;;;;;;;;;;2195832;67;1114;-52
2022/09/02 04:56:17;;;;;;;;;;;;;;;;;;2195911;67;1228;-53
2022/09/02 04:58:53;;;;;;;;;;;;;;;;;;2196065;67;1188;-52
2022/09/02 05:01:27;;;;;;;;;;;;;;;;;;2196139;67;1219;-52
2022/09/02 05:04:01;;;;;;;;;;;;;;;;;;2195877;59;1239;-52
2022/09/02 05:06:34;;;;;;;;;;;;;;;;;;2196504;67;1182;-52
2022/09/02 05:09:08;;;;;;;;;;;;;;;;;;2195684;67;1165;-52
2022/09/02 05:11:41;;;;;;;;;;;;;;;;;;2196068;59;1929;-53
2022/09/02 05:14:18;;;;;;;;;;;;;;;;;;2195769;67;1351;-53
2022/09/02 05:16:52;;;;;;;;;;;;;;;;;;2195580;67;1171;-53
2022/09/02 05:19:26;;;;;;;;;;;;;;;;;;2196081;67;1267;-53
2022/09/02 05:22:00;;;;;;;;;;;;;;;;;;2196165;67;1332;-53
2022/09/02 05:24:33;;;;;;;;;;;;;;;;;;2196310;67;1152;-52
2022/09/02 05:27:06;;;;;;;;;;;;;;;;;;2195953;59;1718;-53
2022/09/02 05:29:42;;;;;;;;;;;;;;;;;;2195075;67;1088;-52
2022/09/02 05:32:15;;;;;;;;;;;;;;;;;;2195181;67;1921;-53
2022/09/02 05:34:49;;;;;;;;;;;;;;;;;;2195599;67;1148;-53
2022/09/02 05:37:23;;;;;;;;;;;;;;;;;;2195838;59;1277;-53
2022/09/02 05:39:56;;;;;;;;;;;;;;;;;;2204357;67;1138;-53
2022/09/02 05:42:30;;;;;;;;;;;;;;;;;;2195848;59;1220;-53
2022/09/02 05:45:07;;;;;;;;;;;;;;;;;;2195304;67;1131;-53
2022/09/02 05:47:41;;;;;;;;;;;;;;;;;;2195553;67;1330;-54
2022/09/02 05:50:15;;;;;;;;;;;;;;;;;;2194955;67;1258;-53
2022/09/02 05:52:51;;;;;;;;;;;;;;;;;;2195390;67;1932;-53
2022/09/02 05:55:24;;;;;;;;;;;;;;;;;;2195634;67;1099;-53
2022/09/02 05:57:58;;;;;;;;;;;;;;;;;;2195396;67;1578;-52
2022/09/02 06:00:34;;;;;;;;;;;;;;;;;;2195950;67;1113;-52
2022/09/02 06:03:07;;;;;;;;;;;;;;;;;;2195241;59;1128;-52
2022/09/02 06:05:41;;;;;;;;;;;;;;;;;;2195309;59;1263;-55
2022/09/02 06:08:14;;;;;;;;;;;;;;;;;;2195516;67;1111;-53
2022/09/02 06:10:47;;;;;;;;;;;;;;;;;;2195505;59;1230;-52
2022/09/02 06:13:21;;;;;;;;;;;;;;;;;;2195623;67;1933;-53
2022/09/02 06:15:57;;;;;;;;;;;;;;;;;;2195694;67;1305;-53
2022/09/02 06:18:30;;;;;;;;;;;;;;;;;;2195473;67;1031;-53
2022/09/02 06:21:04;;;;;;;;;;;;;;;;;;2195449;67;1113;-52
2022/09/02 06:23:39;;;;;;;;;;;;;;;;;;2196073;67;1141;-53
2022/09/02 06:26:13;;;;;;;;;;;;;;;;;;2195651;59;1666;-52
2022/09/02 06:28:47;;;;;;;;;;;;;;;;;;2195548;59;1457;-53
2022/09/02 06:31:23;;;;;;;;;;;;;;;;;;2195205;67;1221;-52
2022/09/02 06:33:58;;;;;;;;;;;;;;;;;;2195548;67;1947;-52
2022/09/02 06:36:32;;;;;;;;;;;;;;;;;;2195778;59;1335;-52
2022/09/02 06:39:05;;;;;;;;;;;;;;;;;;2195136;67;1041;-54
2022/09/02 06:41:39;;;;;;;;;;;;;;;;;;2195473;59;1264;-53
2022/09/02 06:44:14;;;;;;;;;;;;;;;;;;2195840;59;1210;-53
2022/09/02 06:46:54;;;;;;;;;;;;;;;;;;2195777;59;1255;-53
2022/09/02 06:49:28;;;;;;;;;;;;;;;;;;2195605;67;1196;-52
2022/09/02 06:52:01;;;;;;;;;;;;;;;;;;2195704;67;1950;-53
2022/09/02 06:54:34;;;;;;;;;;;;;;;;;;2201666;67;1408;-53
2022/09/02 06:57:07;;;;;;;;;;;;;;;;;;2195758;67;1247;-53
2022/09/02 06:59:41;;;;;;;;;;;;;;;;;;2195559;67;1089;-53
2022/09/02 07:02:17;;;;;;;;;;;;;;;;;;2195642;67;1236;-53
2022/09/02 07:07:40;;;;;;;;;;;;;;;;;;2195611;67;1271;-55
2022/09/02 07:10:15;;;;;;;;;;;;;;;;;;2195927;67;1155;-52
2022/09/02 07:12:48;;;;;;;;;;;;;;;;;;2195780;59;1933;-53
2022/09/02 07:15:22;;;;;;;;;;;;;;;;;;2195807;67;1221;-52
2022/09/02 07:17:57;;;;;;;;;;;;;;;;;;2195827;67;1173;-52
2022/09/02 07:20:31;;;;;;;;;;;;;;;;;;2195786;67;1029;-53
2022/09/02 07:23:04;;;;;;;;;;;;;;;;;;2195536;67;1216;-54
2022/09/02 07:25:40;;;;;;;;;;;;;;;;;;2195783;67;1778;-52
2022/09/02 07:28:13;;;;;;;;;;;;;;;;;;2195071;59;1800;-53
2022/09/02 07:30:46;;;;;;;;;;;;;;;;;;2195147;67;1089;-52
2022/09/02 07:33:23;;;;;;;;;;;;;;;;;;2195797;67;1931;-53
2022/09/02 07:35:56;;;;;;;;;;;;;;;;;;2205214;59;1622;-53
2022/09/02 07:38:30;;;;;;;;;;;;;;;;;;2195645;67;1065;-53
2022/09/02 07:41:03;;;;;;;;;;;;;;;;;;2195194;59;1177;-55
2022/09/02 07:43:37;;;;;;;;;;;;;;;;;;2195858;67;1122;-53
2022/09/02 07:46:10;;;;;;;;;;;;;;;;;;2196009;67;1253;-54
2022/09/02 07:48:48;;;;;;;;;;;;;;;;;;2195908;67;1129;-53
2022/09/02 07:51:22;;;;;;;;;;;;;;;;;;2196343;67;1191;-53
2022/09/02 07:53:55;;;;;;;;;;;;;;;;;;2196010;67;1928;-57
2022/09/02 07:56:28;;;;;;;;;;;;;;;;;;2195791;67;1251;-53
2022/09/02 07:59:02;;;;;;;;;;;;;;;;;;2195355;67;1282;-53
2022/09/02 08:01:35;;;;;;;;;;;;;;;;;;2195587;67;1116;-55
2022/09/02 08:04:12;;;;;;;;;;;;;;;;;;2195572;59;1310;-53
2022/09/02 08:06:45;;;;;;;;;;;;;;;;;;2195436;67;1665;-53
2022/09/02 08:09:18;;;;;;;;;;;;;;;;;;2195320;67;1400;-54
2022/09/02 08:11:52;;;;;;;;;;;;;;;;;;2195331;59;1281;-54
2022/09/02 08:14:28;;;;;;;;;;;;;;;;;;2195401;67;1920;-53
2022/09/02 08:17:02;;;;;;;;;;;;;;;;;;2195158;67;1298;-53
2022/09/02 08:19:37;;;;;;;;;;;;;;;;;;2196243;67;1112;-53
2022/09/02 08:22:11;;;;;;;;;;;;;;;;;;2196406;67;1200;-54
2022/09/02 08:24:44;;;;;;;;;;;;;;;;;;2196356;67;1128;-54
2022/09/02 08:27:17;;;;;;;;;;;;;;;;;;2196477;59;1654;-54
2022/09/02 08:29:51;;;;;;;;;;;;;;;;;;2195962;67;1373;-53
2022/09/02 08:32:24;;;;;;;;;;;;;;;;;;2195755;59;2506;-54
2022/09/02 08:35:01;;;;;;;;;;;;;;;;;;2204405;59;1925;-53
2022/09/02 08:37:35;;;;;;;;;;;;;;;;;;2196588;59;1307;-53
2022/09/02 08:40:10;;;;;;;;;;;;;;;;;;2195774;67;1160;-54
2022/09/02 08:42:45;;;;;;;;;;;;;;;;;;2195876;59;1322;-54
2022/09/02 08:45:22;;;;;;;;;;;;;;;;;;2195788;67;1259;-54
2022/09/02 08:48:00;;;;;;;;;;;;;;;;;;2195572;67;1226;-55
2022/09/02 08:50:38;;;;;;;;;;;;;;;;;;2195616;59;1170;-54
2022/09/02 08:53:13;;;;;;;;;;;;;;;;;;2195837;67;1937;-55
2022/09/02 08:55:47;;;;;;;;;;;;;;;;;;2195541;67;1289;-54
2022/09/02 08:58:22;;;;;;;;;;;;;;;;;;2195781;67;1283;-53
2022/09/02 09:01:02;;;;;;;;;;;;;;;;;;2195744;67;1171;-56
2022/09/02 09:03:40;;;;;;;;;;;;;;;;;;2195619;59;1385;-54
2022/09/02 09:06:20;;;;;;;;;;;;;;;;;;2196103;67;1263;-55
2022/09/02 09:08:59;;;;;;;;;;;;;;;;;;2195707;59;1086;-55
2022/09/02 09:11:38;;;;;;;;;;;;;;;;;;2196080;59;1122;-54
2022/09/02 09:14:19;;;;;;;;;;;;;;;;;;2196977;67;1935;-54
2022/09/02 09:16:57;;;;;;;;;;;;;;;;;;2197548;67;1215;-57
2022/09/02 09:19:37;;;;;;;;;;;;;;;;;;2197266;67;1240;-54
2022/09/02 09:22:15;;;;;;;;;;;;;;;;;;2196634;67;1897;-53
2022/09/02 09:24:50;;;;;;;;;;;;;;;;;;2196762;67;1164;-53
2022/09/02 09:27:24;;;;;;;;;;;;;;;;;;2196807;59;1662;-52
2022/09/02 09:29:57;;;;;;;;;;;;;;;;;;2196640;67;1282;-54
2022/09/02 09:32:32;;;;;;;;;;;;;;;;;;2196601;67;1038;-54
2022/09/02 09:35:07;;;;;;;;;;;;;;;;;;2195638;59;2404;-54
2022/09/02 09:37:44;;;;;;;;;;;;;;;;;;2195500;59;1239;-54
2022/09/02 09:40:29;;;;;;;;;;;;;;;;;;2195715;59;1365;-53
2022/09/02 09:43:14;;;;;;;;;;;;;;;;;;2195810;59;1203;-57
2022/09/02 09:45:48;;;;;;;;;;;;;;;;;;2195505;67;1251;-55
2022/09/02 09:48:26;;;;;;;;;;;;;;;;;;2196630;67;1243;-54
2022/09/02 09:51:17;;;;;;;;;;;;;;;;;;2206937;67;1843;-54
2022/09/02 09:53:54;;;;;;;;;;;;;;;;;;2195787;67;1932;-54
2022/09/02 09:56:31;;;;;;;;;;;;;;;;;;2195762;67;1250;-54
2022/09/02 09:59:04;;;;;;;;;;;;;;;;;;2195504;67;1234;-53
2022/09/02 10:01:38;;;;;;;;;;;;;;;;;;2196277;67;1061;-53
2022/09/02 10:04:12;;;;;;;;;;;;;;;;;;2196395;59;1304;-54
2022/09/02 10:06:47;;;;;;;;;;;;;;;;;;2196145;67;1253;-53
2022/09/02 10:09:30;;;;;;;;;;;;;;;;;;2196365;67;1243;-54
2022/09/02 10:12:05;;;;;;;;;;;;;;;;;;2195763;59;1221;-53
2022/09/02 10:14:40;;;;;;;;;;;;;;;;;;2195543;67;1929;-54
2022/09/02 10:17:28;;;;;;;;;;;;;;;;;;2195855;67;1306;-54
2022/09/02 10:20:12;;;;;;;;;;;;;;;;;;2195845;67;1216;-53
2022/09/02 10:23:03;;;;;;;;;;;;;;;;;;2196270;67;1154;-56
2022/09/02 10:25:45;;;;;;;;;;;;;;;;;;2196175;67;1187;-54
2022/09/02 10:28:28;;;;;;;;;;;;;;;;;;2196800;59;1639;-53
2022/09/02 10:31:08;;;;;;;;;;;;;;;;;;2196181;67;1195;-53
2022/09/02 10:33:46;;;;;;;;;;;;;;;;;;2196376;67;1985;-54
2022/09/02 10:36:27;;;;;;;;;;;;;;;;;;2196820;67;1212;-53
2022/09/02 10:39:04;;;;;;;;;;;;;;;;;;2195666;67;1230;-54
2022/09/02 10:41:45;;;;;;;;;;;;;;;;;;2196435;59;1270;-54
2022/09/02 10:44:30;;;;;;;;;;;;;;;;;;2195959;67;1256;-54
2022/09/02 10:47:04;;;;;;;;;;;;;;;;;;2195848;67;1251;-57
2022/09/02 10:49:42;;;;;;;;;;;;;;;;;;2196086;67;1148;-54
2022/09/02 10:52:23;;;;;;;;;;;;;;;;;;2196167;67;1129;-54
2022/09/02 10:54:59;;;;;;;;;;;;;;;;;;2196100;67;1984;-54
2022/09/02 10:57:40;;;;;;;;;;;;;;;;;;2195684;67;1249;-54
2022/09/02 11:00:15;;;;;;;;;;;;;;;;;;2195527;67;1143;-54
2022/09/02 11:02:50;;;;;;;;;;;;;;;;;;2195178;59;1200;-54
2022/09/02 11:05:25;;;;;;;;;;;;;;;;;;2196260;67;1156;-54
2022/09/02 11:08:02;;;;;;;;;;;;;;;;;;2195252;67;1269;-54
2022/09/02 11:10:38;;;;;;;;;;;;;;;;;;2195295;59;1177;-55
2022/09/02 11:13:20;;;;;;;;;;;;;;;;;;2195587;67;1168;-56
2022/09/02 11:15:58;;;;;;;;;;;;;;;;;;2195610;67;1945;-54
2022/09/02 11:18:34;;;;;;;;;;;;;;;;;;2195708;67;1087;-54
2022/09/02 11:21:11;;;;;;;;;;;;;;;;;;2195562;67;1050;-56
2022/09/02 11:23:48;;;;;;;;;;;;;;;;;;2196044;67;1228;-54
2022/09/02 11:26:23;;;;;;;;;;;;;;;;;;2196149;59;1609;-55
2022/09/02 11:29:01;;;;;;;;;;;;;;;;;;2196393;59;1371;-56
2022/09/02 11:31:36;;;;;;;;;;;;;;;;;;2196292;67;1094;-56
2022/09/02 11:34:14;;;;;;;;;;;;;;;;;;2196713;67;1933;-56
2022/09/02 11:36:47;;;;;;;;;;;;;;;;;;2196442;67;1251;-54
2022/09/02 11:39:23;;;;;;;;;;;;;;;;;;2195841;67;1187;-54
2022/09/02 11:42:12;;;;;;;;;;;;;;;;;;2196671;59;1281;-55
2022/09/02 11:45:00;;;;;;;;;;;;;;;;;;2195718;67;1169;-54
2022/09/02 11:47:41;;;;;;;;;;;;;;;;;;2195258;67;1218;-54
2022/09/02 11:50:29;;;;;;;;;;;;;;;;;;2195773;67;1281;-54
2022/09/02 11:53:07;;;;;;;;;;;;;;;;;;2196418;67;1273;-56
2022/09/02 11:55:42;;;;;;;;;;;;;;;;;;2196120;67;1926;-54
2022/09/02 11:58:30;;;;;;;;;;;;;;;;;;2196155;67;1270;-53
2022/09/02 12:01:17;;;;;;;;;;;;;;;;;;2196554;59;1969;-54
2022/09/02 12:03:54;;;;;;;;;;;;;;;;;;2196565;59;1192;-56
2022/09/02 12:06:27;;;;;;;;;;;;;;;;;;2196743;59;1264;-55
2022/09/02 12:09:11;;;;;;;;;;;;;;;;;;2196491;67;1224;-54
2022/09/02 12:11:45;;;;;;;;;;;;;;;;;;2196286;59;1311;-55
2022/09/02 12:14:37;;;;;;;;;;;;;;;;;;2196716;67;1989;-54
2022/09/02 12:17:36;;;;;;;;;;;;;;;;;;2197090;67;1236;-54
2022/09/02 12:20:10;;;;;;;;;;;;;;;;;;2197014;67;1148;-55
2022/09/02 12:22:43;;;;;;;;;;;;;;;;;;2196589;67;1202;-54
2022/09/02 12:25:37;;;;;;;;;;;;;;;;;;2196553;67;1177;-54
2022/09/02 12:28:25;;;;;;;;;;;;;;;;;;2196325;59;1587;-56
2022/09/02 12:31:17;;;;;;;;;;;;;;;;;;2195592;59;1302;-54
2022/09/02 12:33:53;;;;;;;;;;;;;;;;;;2206721;67;1141;-54
2022/09/02 12:36:45;;;;;;;;;;;;;;;;;;2196717;59;1983;-54
2022/09/02 12:39:36;;;;;;;;;;;;;;;;;;2195753;67;1238;-54
2022/09/02 12:42:17;;;;;;;;;;;;;;;;;;2194830;67;1428;-54
2022/09/02 12:44:54;;;;;;;;;;;;;;;;;;2196065;67;1093;-55
2022/09/02 12:47:31;;;;;;;;;;;;;;;;;;2196179;67;1714;-56
2022/09/02 12:50:08;;;;;;;;;;;;;;;;;;2196288;67;1223;-56
2022/09/02 12:52:46;;;;;;;;;;;;;;;;;;2195594;67;1098;-55
2022/09/02 12:55:22;;;;;;;;;;;;;;;;;;2195955;59;1924;-55
2022/09/02 12:57:56;;;;;;;;;;;;;;;;;;2196149;67;1197;-54
2022/09/02 13:00:34;;;;;;;;;;;;;;;;;;2196278;67;1090;-54
2022/09/02 13:03:20;;;;;;;;;;;;;;;;;;2195955;59;1133;-52
2022/09/02 13:06:02;;;;;;;;;;;;;;;;;;2195980;67;1243;-53
2022/09/02 13:09:00;;;;;;;;;;;;;;;;;;2196181;59;1374;-55
2022/09/02 13:11:45;;;;;;;;;;;;;;;;;;2198210;59;2050;-55
2022/09/02 13:14:51;;;;;;;;;;;;;;;;;;2196128;67;1933;-53
2022/09/02 13:17:30;;;;;;;;;;;;;;;;;;2196542;67;1258;-59
2022/09/02 13:20:34;;;;;;;;;;;;;;;;;;2196597;67;1185;-55
2022/09/02 13:23:17;;;;;;;;;;;;;;;;;;2195679;67;1142;-54
2022/09/02 13:26:08;;;;;;;;;;;;;;;;;;2196086;59;2927;-54
2022/09/02 13:28:52;;;;;;;;;;;;;;;;;;2205353;59;1428;-55
2022/09/02 13:31:26;;;;;;;;;;;;;;;;;;2195804;67;1174;-54
2022/09/02 13:34:00;;;;;;;;;;;;;;;;;;2196117;67;1265;-53
2022/09/02 13:36:36;;;;;;;;;;;;;;;;;;2195890;59;1938;-53
2022/09/02 13:39:20;;;;;;;;;;;;;;;;;;2205321;67;1814;-55
2022/09/02 13:41:53;;;;;;;;;;;;;;;;;;2196345;67;1083;-54
2022/09/02 13:44:27;;;;;;;;;;;;;;;;;;2196057;67;1238;-53
2022/09/02 13:47:04;;;;;;;;;;;;;;;;;;2196285;67;1279;-55
2022/09/02 13:49:38;;;;;;;;;;;;;;;;;;2196590;67;1193;-56
2022/09/02 13:52:14;;;;;;;;;;;;;;;;;;2196391;59;1138;-54
2022/09/02 13:54:54;;;;;;;;;;;;;;;;;;2196186;67;1985;-55
2022/09/02 13:57:29;;;;;;;;;;;;;;;;;;2196044;67;1264;-54
2022/09/02 14:00:02;;;;;;;;;;;;;;;;;;2195963;67;1254;-54
2022/09/02 14:02:36;;;;;;;;;;;;;;;;;;2195649;59;1219;-53
2022/09/02 14:05:15;;;;;;;;;;;;;;;;;;2195784;67;1311;-54
2022/09/02 14:07:49;;;;;;;;;;;;;;;;;;2196060;67;1274;-55
2022/09/02 14:10:27;;;;;;;;;;;;;;;;;;2195809;67;1235;-55
2022/09/02 14:13:00;;;;;;;;;;;;;;;;;;2195463;59;1225;-54
2022/09/02 14:15:34;;;;;;;;;;;;;;;;;;2194671;67;1897;-56
2022/09/02 14:18:13;;;;;;;;;;;;;;;;;;2202893;67;1598;-54
2022/09/02 14:21:00;;;;;;;;;;;;;;;;;;2194770;67;1098;-55
2022/09/02 14:23:34;;;;;;;;;;;;;;;;;;2195433;67;1142;-54
2022/09/02 14:26:10;;;;;;;;;;;;;;;;;;2195381;59;1598;-53
2022/09/02 14:28:44;;;;;;;;;;;;;;;;;;2195383;59;1426;-53
2022/09/02 14:31:28;;;;;;;;;;;;;;;;;;2195449;67;1196;-53
2022/09/02 14:34:03;;;;;;;;;;;;;;;;;;2195395;60;1245;-55
2022/09/02 14:36:37;;;;;;;;;;;;;;;;;;2195437;67;1934;-54
2022/09/02 14:39:12;;;;;;;;;;;;;;;;;;2195037;67;1133;-54
2022/09/02 14:41:49;;;;;;;;;;;;;;;;;;2195523;59;1215;-55
2022/09/02 14:44:25;;;;;;;;;;;;;;;;;;2195592;67;1204;-55
2022/09/02 14:47:00;;;;;;;;;;;;;;;;;;2195055;67;1292;-56
2022/09/02 14:49:35;;;;;;;;;;;;;;;;;;2195311;67;1084;-54
2022/09/02 14:52:17;;;;;;;;;;;;;;;;;;2195113;67;1089;-54
2022/09/02 14:54:52;;;;;;;;;;;;;;;;;;2195253;67;1204;-54
2022/09/02 14:57:30;;;;;;;;;;;;;;;;;;2195317;67;1990;-55
2022/09/02 15:00:07;;;;;;;;;;;;;;;;;;2195815;67;1231;-55
2022/09/02 15:02:42;;;;;;;;;;;;;;;;;;2194903;59;1252;-53
2022/09/02 15:05:16;;;;;;;;;;;;;;;;;;2195564;67;1240;-54
2022/09/02 15:07:49;;;;;;;;;;;;;;;;;;2205564;67;1314;-53
2022/09/02 15:10:22;;;;;;;;;;;;;;;;;;2195608;59;1287;-53
2022/09/02 15:12:58;;;;;;;;;;;;;;;;;;2195013;59;1220;-54
2022/09/02 15:15:32;;;;;;;;;;;;;;;;;;2195516;67;1981;-55
2022/09/02 15:18:05;;;;;;;;;;;;;;;;;;2195146;67;1077;-54
2022/09/02 15:20:38;;;;;;;;;;;;;;;;;;2195633;67;1072;-55
2022/09/02 15:23:11;;;;;;;;;;;;;;;;;;2195414;67;1105;-55
2022/09/02 15:25:44;;;;;;;;;;;;;;;;;;2195448;59;1214;-54
2022/09/02 15:28:20;;;;;;;;;;;;;;;;;;2195782;59;1645;-55
2022/09/02 15:30:58;;;;;;;;;;;;;;;;;;2195193;67;1122;-54
2022/09/02 15:33:32;;;;;;;;;;;;;;;;;;2196061;67;1036;-55
2022/09/02 15:36:08;;;;;;;;;;;;;;;;;;2195304;67;1917;-54
2022/09/02 15:38:42;;;;;;;;;;;;;;;;;;2205400;67;1763;-53
2022/09/02 15:41:16;;;;;;;;;;;;;;;;;;2195665;67;1241;-53
2022/09/02 15:43:52;;;;;;;;;;;;;;;;;;2195457;67;1149;-54
2022/09/02 15:46:27;;;;;;;;;;;;;;;;;;2196072;67;1266;-56
2022/09/02 15:49:02;;;;;;;;;;;;;;;;;;2195156;67;1238;-54
2022/09/02 15:51:37;;;;;;;;;;;;;;;;;;2195270;67;1037;-54
2022/09/02 15:54:12;;;;;;;;;;;;;;;;;;2195540;67;1589;-54
2022/09/02 15:56:46;;;;;;;;;;;;;;;;;;2195594;67;1920;-57
2022/09/02 15:59:22;;;;;;;;;;;;;;;;;;2195534;67;1235;-54
2022/09/02 16:01:57;;;;;;;;;;;;;;;;;;2195437;67;1101;-54
2022/09/02 16:04:30;;;;;;;;;;;;;;;;;;2206566;59;1719;-56
2022/09/02 16:07:03;;;;;;;;;;;;;;;;;;2195583;67;1292;-55
2022/09/02 16:09:37;;;;;;;;;;;;;;;;;;2195074;59;4884;-54
2022/09/02 16:12:10;;;;;;;;;;;;;;;;;;2195440;59;1208;-54
2022/09/02 16:14:49;;;;;;;;;;;;;;;;;;2195973;67;1097;-53
2022/09/02 16:17:23;;;;;;;;;;;;;;;;;;2196242;67;1965;-54
2022/09/02 16:19:56;;;;;;;;;;;;;;;;;;2195867;67;1210;-54
2022/09/02 16:22:29;;;;;;;;;;;;;;;;;;2195663;67;1218;-53
2022/09/02 16:25:02;;;;;;;;;;;;;;;;;;2195371;67;1085;-54
2022/09/02 16:27:55;;;;;;;;;;;;;;;;;;2195637;59;1673;-54
2022/09/02 16:30:31;;;;;;;;;;;;;;;;;;2195040;59;1234;-55
2022/09/02 16:33:04;;;;;;;;;;;;;;;;;;2195661;67;1102;-53
2022/09/02 16:35:37;;;;;;;;;;;;;;;;;;2195660;67;1976;-53
2022/09/02 16:38:11;;;;;;;;;;;;;;;;;;2195889;59;1313;-54
2022/09/02 16:40:50;;;;;;;;;;;;;;;;;;2196160;67;1214;-57
2022/09/02 16:43:24;;;;;;;;;;;;;;;;;;2196063;67;1240;-53
2022/09/02 16:46:01;;;;;;;;;;;;;;;;;;2198991;54;2093;-78
2022/09/02 16:48:35;;;;;;;;;;;;;;;;;;2191800;59;1184;-76
2022/09/02 16:51:08;;;;;;;;;;;;;;;;;;2192724;59;1184;-77
2022/09/02 16:53:41;;;;;;;;;;;;;;;;;;2195138;59;1193;-77
2022/09/02 16:56:15;;;;;;;;;;;;;;;;;;2195076;59;2334;-77
2022/09/02 16:58:49;;;;;;;;;;;;;;;;;;2195446;59;1136;-77
2022/09/02 17:01:25;;;;;;;;;;;;;;;;;;2198407;53;3608;-65
2022/09/02 17:03:58;;;;;;;;;;;;;;;;;;2194849;59;1228;-64
2022/09/02 17:06:32;;;;;;;;;;;;;;;;;;2195156;59;1422;-63
2022/09/02 17:09:05;;;;;;;;;;;;;;;;;;2194782;67;1218;-64
2022/09/02 17:11:41;;;;;;;;;;;;;;;;;;2194574;59;1188;-63
2022/09/02 17:14:15;;;;;;;;;;;;;;;;;;2195087;59;1177;-63
2022/09/02 17:16:52;;;;;;;;;;;;;;;;;;2194606;67;1937;-64
2022/09/02 17:19:26;;;;;;;;;;;;;;;;;;2195192;67;1255;-61
2022/09/02 17:21:59;;;;;;;;;;;;;;;;;;2195239;67;1332;-64
2022/09/02 17:24:32;;;;;;;;;;;;;;;;;;2194835;67;1116;-64
2022/09/02 17:27:05;;;;;;;;;;;;;;;;;;2194957;59;1562;-62
2022/09/02 17:29:39;;;;;;;;;;;;;;;;;;2194991;67;1148;-64
2022/09/02 17:32:15;;;;;;;;;;;;;;;;;;2195509;67;1120;-64
2022/09/02 17:34:50;;;;;;;;;;;;;;;;;;2194996;67;1176;-64
2022/09/02 17:37:25;;;;;;;;;;;;;;;;;;2194781;59;1984;-64
2022/09/02 17:39:58;;;;;;;;;;;;;;;;;;2194986;67;1254;-63
2022/09/02 17:42:29;;;;;;;;;;;;;;;;;;2196070;67;1187;-64
2022/09/02 17:45:02;;;;;;;;;;;;;;;;;;2194892;67;1195;-63
2022/09/02 17:47:38;;;;;;;;;;;;;;;;;;2194767;60;1219;-63
2022/09/02 17:50:11;;;;;;;;;;;;;;;;;;2195118;67;1148;-64
2022/09/02 17:52:44;;;;;;;;;;;;;;;;;;2195351;67;1133;-64
2022/09/02 17:55:18;;;;;;;;;;;;;;;;;;2194693;67;1299;-62
2022/09/02 17:57:58;;;;;;;;;;;;;;;;;;2194730;67;1935;-62
2022/09/02 18:00:32;;;;;;;;;;;;;;;;;;2194646;67;1256;-63
2022/09/02 18:03:27;;;;;;;;;;;;;;;;;;2196118;59;1198;-62
2022/09/02 18:06:11;;;;;;;;;;;;;;;;;;2194882;67;2245;-65